Arch, New Mexico
Current Conditions -  °F | °C
As of 4:58 PM on Friday 28 Nov 2014 (Local Time) from KCVS Reporting Station
Clear Clear  
Wind Chill: 57°   Ceiling: Unl
Heat Index: 57°   Visibility: 10mi
Dew Point: 13°   Wind: 12mph
Humidity: 18%   Direction: 230°SW
Pressure: 29.99"   Gusts: NA
Location:  34.1669°N, 103.266°W
Report Text: KCVS 282358Z AUTO 23010KT 10SM CLR 14/M10 A2999 RMK AO2 SLP137 T01371105 10248 20137 57006 $
Loading
Personal Weather Stations






























Interactive Weather Map New forecast layout! Learn more

10-Day Weather Forecast

Advertisements
Track Severe Weather on mobile